Ana Sayfa
METAR-TAF:

METAR-TAF

Havaalanları :

Culiacán, Meksika

Enlem: 24-49N, Boylam: 107-24W, yükseklik: 39 m

Güncel hava durumu gözlemi

Rapor saat 20:44 UTC de 53 dakika önce yapıldı.
Rüzgar batıdan 6 kt
Sıcaklık 29°C
Nem 48%
Basınç 1015 hPa
Görüş mesafesi: 16.1 km
25000 ft yükseklikte az bulutlu

METAR: MMCL 202044Z 27006KT 10SM FEW250 29/17 A2998 RMK SLP152 57027 918 8/002 HZY

Saat: 14:37 (21:37 UTC)

Tahmin

Rapor saat 16:59 UTC de 4 saat ve 38 dakika önce yapıldı.
Ayın 20'si saat 18 UTC'den ayın 21'si saat 18 UTC'ye kadar geçerli Tahmin
Rüzgar güney/güneybatıdan 5 kt
Görüş mesafesi: 10 km
25000 ft yükseklikte parçalı bulutlu
Ayın 21'si saat 0400 UTC'den
Rüzgar kuzeydan 5 kt
Görüş mesafesi: 10 km
Açık gökyüzü
Geçici
ayın 21'si saat 10 UTC'den ayın 21'si saat 14 UTC'ye kadar
Görüş mesafesi: 0.8 km
300 ft yükseklikte
sis

TAF: MMCL 201659Z 2018/2118 20005KT P6SM SCT250 FM210400 36005KT P6SM SKC TEMPO 2110/2114 1/2SM FG VV003

4.000'den fazla havaalanı için hava durumu gözlemleri ve tahminleri (METAR ve TAF raporları).

Kullanılabilir istasyonlar harita üzerinde sarı ve kırmızı noktalarla gösterilir.

İstasyonun adını görmek için fareyi noktanın üzerinde gezdirin.

Sonrasında hava gözlem ve tahminlerini görmek için tıklayın.

Haritayı değiştirmek için: yaklaştırmak için siyah artı işaretli yeşil düğmeye ve uzaklaştırmak için de eksi işaretli düğmeye hızla tıklayın; bitişik haritalar için yeşil okları kullanın.


METAR-TAF: